sensor_id;sensor_type;location;lat;lon;timestamp;pressure;altitude;pressure_sealevel;temperature;humidity
48606;BME280;8482;54.396;18.590;2023-05-19T00:01:58;102913.78;;;8.58;69.62
48606;BME280;8482;54.396;18.590;2023-05-19T00:04:30;102917.38;;;8.55;69.56
48606;BME280;8482;54.396;18.590;2023-05-19T00:06:58;102912.22;;;8.52;69.47
48606;BME280;8482;54.396;18.590;2023-05-19T00:09:25;102911.41;;;8.50;70.14
48606;BME280;8482;54.396;18.590;2023-05-19T00:11:52;102913.25;;;8.48;69.97
48606;BME280;8482;54.396;18.590;2023-05-19T00:14:19;102917.69;;;8.46;70.27
48606;BME280;8482;54.396;18.590;2023-05-19T00:16:45;102910.75;;;8.42;70.35
48606;BME280;8482;54.396;18.590;2023-05-19T00:19:11;102909.16;;;8.38;70.18
48606;BME280;8482;54.396;18.590;2023-05-19T00:21:37;102913.63;;;8.36;70.56
48606;BME280;8482;54.396;18.590;2023-05-19T00:24:04;102910.25;;;8.32;70.71
48606;BME280;8482;54.396;18.590;2023-05-19T00:26:30;102911.19;;;8.29;70.73
48606;BME280;8482;54.396;18.590;2023-05-19T00:28:56;102910.38;;;8.27;70.50
48606;BME280;8482;54.396;18.590;2023-05-19T00:31:22;102912.25;;;8.25;70.83
48606;BME280;8482;54.396;18.590;2023-05-19T00:33:48;102918.44;;;8.24;70.98
48606;BME280;8482;54.396;18.590;2023-05-19T00:36:14;102922.91;;;8.22;71.14
48606;BME280;8482;54.396;18.590;2023-05-19T00:38:40;102913.41;;;8.17;71.19
48606;BME280;8482;54.396;18.590;2023-05-19T00:41:06;102916.06;;;8.17;70.67
48606;BME280;8482;54.396;18.590;2023-05-19T00:43:32;102920.47;;;8.16;70.80
48606;BME280;8482;54.396;18.590;2023-05-19T00:46:02;102916.22;;;8.12;70.78
48606;BME280;8482;54.396;18.590;2023-05-19T00:48:28;102925.91;;;8.11;70.81
48606;BME280;8482;54.396;18.590;2023-05-19T00:50:56;102918.13;;;8.07;70.74
48606;BME280;8482;54.396;18.590;2023-05-19T00:53:30;102915.59;;;8.04;70.93
48606;BME280;8482;54.396;18.590;2023-05-19T00:55:57;102918.31;;;8.02;71.03
48606;BME280;8482;54.396;18.590;2023-05-19T00:58:24;102913.03;;;8.01;71.18
48606;BME280;8482;54.396;18.590;2023-05-19T01:00:57;102914.94;;;7.97;71.19
48606;BME280;8482;54.396;18.590;2023-05-19T01:03:33;102911.44;;;7.96;71.81
48606;BME280;8482;54.396;18.590;2023-05-19T01:06:00;102917.72;;;7.92;72.01
48606;BME280;8482;54.396;18.590;2023-05-19T01:08:34;102916.91;;;7.90;71.38
48606;BME280;8482;54.396;18.590;2023-05-19T01:11:00;102915.19;;;7.89;72.23
48606;BME280;8482;54.396;18.590;2023-05-19T01:13:27;102911.78;;;7.86;72.07
48606;BME280;8482;54.396;18.590;2023-05-19T01:16:28;102911.84;;;7.84;72.17
48606;BME280;8482;54.396;18.590;2023-05-19T01:30:52;102908.69;;;7.73;71.80
48606;BME280;8482;54.396;18.590;2023-05-19T01:33:21;102911.47;;;7.68;72.05
48606;BME280;8482;54.396;18.590;2023-05-19T01:35:49;102910.69;;;7.64;72.35
48606;BME280;8482;54.396;18.590;2023-05-19T01:38:19;102914.31;;;7.62;72.96
48606;BME280;8482;54.396;18.590;2023-05-19T01:40:47;102912.59;;;7.61;72.74
48606;BME280;8482;54.396;18.590;2023-05-19T01:43:23;102905.66;;;7.57;73.19
48606;BME280;8482;54.396;18.590;2023-05-19T01:45:51;102911.72;;;7.60;72.90
48606;BME280;8482;54.396;18.590;2023-05-19T01:48:18;102910.94;;;7.57;73.43
48606;BME280;8482;54.396;18.590;2023-05-19T01:50:44;102913.59;;;7.57;72.72
48606;BME280;8482;54.396;18.590;2023-05-19T01:53:10;102913.69;;;7.54;73.28
48606;BME280;8482;54.396;18.590;2023-05-19T01:55:48;102907.63;;;7.50;73.11
48606;BME280;8482;54.396;18.590;2023-05-19T01:58:31;102912.06;;;7.49;73.26
48606;BME280;8482;54.396;18.590;2023-05-19T02:01:15;102905.94;;;7.47;73.22
48606;BME280;8482;54.396;18.590;2023-05-19T02:07:11;102917.50;;;7.45;74.07
48606;BME280;8482;54.396;18.590;2023-05-19T02:10:10;102905.22;;;7.42;73.51
48606;BME280;8482;54.396;18.590;2023-05-19T02:12:40;102902.63;;;7.41;73.83
48606;BME280;8482;54.396;18.590;2023-05-19T02:15:20;102899.09;;;7.42;73.68
48606;BME280;8482;54.396;18.590;2023-05-19T02:17:49;102902.59;;;7.42;74.03
48606;BME280;8482;54.396;18.590;2023-05-19T02:20:17;102899.94;;;7.42;74.18
48606;BME280;8482;54.396;18.590;2023-05-19T02:22:43;102895.53;;;7.43;73.88
48606;BME280;8482;54.396;18.590;2023-05-19T02:25:10;102900.81;;;7.43;73.85
48606;BME280;8482;54.396;18.590;2023-05-19T02:27:37;102902.59;;;7.42;74.16
48606;BME280;8482;54.396;18.590;2023-05-19T02:30:05;102900.84;;;7.41;74.50
48606;BME280;8482;54.396;18.590;2023-05-19T02:32:32;102898.28;;;7.40;74.30
48606;BME280;8482;54.396;18.590;2023-05-19T02:34:57;102899.09;;;7.42;74.57
48606;BME280;8482;54.396;18.590;2023-05-19T02:37:24;102899.03;;;7.43;74.74
48606;BME280;8482;54.396;18.590;2023-05-19T02:39:53;102896.38;;;7.45;74.60
48606;BME280;8482;54.396;18.590;2023-05-19T02:42:19;102898.13;;;7.44;74.74
48606;BME280;8482;54.396;18.590;2023-05-19T02:44:45;102887.56;;;7.44;74.58
48606;BME280;8482;54.396;18.590;2023-05-19T02:47:12;102890.16;;;7.46;75.15
48606;BME280;8482;54.396;18.590;2023-05-19T02:49:38;102892.75;;;7.47;74.65
48606;BME280;8482;54.396;18.590;2023-05-19T02:52:05;102890.03;;;7.50;74.36
48606;BME280;8482;54.396;18.590;2023-05-19T02:54:33;102896.13;;;7.53;74.47
48606;BME280;8482;54.396;18.590;2023-05-19T02:56:59;102886.34;;;7.55;74.70
48606;BME280;8482;54.396;18.590;2023-05-19T02:59:25;102889.00;;;7.55;74.78
48606;BME280;8482;54.396;18.590;2023-05-19T03:01:59;102884.66;;;7.54;74.97
48606;BME280;8482;54.396;18.590;2023-05-19T03:04:26;102894.25;;;7.56;74.67
48606;BME280;8482;54.396;18.590;2023-05-19T03:06:52;102896.88;;;7.56;74.66
48606;BME280;8482;54.396;18.590;2023-05-19T03:09:19;102896.72;;;7.61;74.82
48606;BME280;8482;54.396;18.590;2023-05-19T03:11:45;102898.47;;;7.62;74.84
48606;BME280;8482;54.396;18.590;2023-05-19T03:14:11;102889.66;;;7.61;74.85
48606;BME280;8482;54.396;18.590;2023-05-19T03:16:38;102893.94;;;7.65;74.98
48606;BME280;8482;54.396;18.590;2023-05-19T03:19:05;102900.88;;;7.70;75.10
48606;BME280;8482;54.396;18.590;2023-05-19T03:21:32;102904.19;;;7.75;74.59
48606;BME280;8482;54.396;18.590;2023-05-19T03:23:59;102897.97;;;7.77;74.61
48606;BME280;8482;54.396;18.590;2023-05-19T03:26:25;102904.94;;;7.80;74.32
48606;BME280;8482;54.396;18.590;2023-05-19T03:28:51;102900.47;;;7.82;74.15
48606;BME280;8482;54.396;18.590;2023-05-19T03:31:17;102894.19;;;7.85;74.90
48606;BME280;8482;54.396;18.590;2023-05-19T03:33:43;102897.66;;;7.87;74.95
48606;BME280;8482;54.396;18.590;2023-05-19T03:36:09;102904.59;;;7.91;75.01
48606;BME280;8482;54.396;18.590;2023-05-19T03:38:37;102902.63;;;7.96;75.12
48606;BME280;8482;54.396;18.590;2023-05-19T03:41:03;102903.34;;;8.01;74.46
48606;BME280;8482;54.396;18.590;2023-05-19T03:43:28;102905.91;;;8.04;74.50
48606;BME280;8482;54.396;18.590;2023-05-19T03:45:55;102901.38;;;8.08;75.06
48606;BME280;8482;54.396;18.590;2023-05-19T03:48:21;102907.38;;;8.13;74.67
48606;BME280;8482;54.396;18.590;2023-05-19T03:50:47;102903.75;;;8.16;74.36
48606;BME280;8482;54.396;18.590;2023-05-19T03:53:13;102911.53;;;8.20;74.37
48606;BME280;8482;54.396;18.590;2023-05-19T03:55:39;102912.28;;;8.24;74.23
48606;BME280;8482;54.396;18.590;2023-05-19T03:58:04;102919.09;;;8.31;74.15
48606;BME280;8482;54.396;18.590;2023-05-19T04:00:31;102913.69;;;8.34;73.65
48606;BME280;8482;54.396;18.590;2023-05-19T04:02:56;102909.09;;;8.39;74.04
48606;BME280;8482;54.396;18.590;2023-05-19T04:05:23;102906.25;;;8.46;73.83
48606;BME280;8482;54.396;18.590;2023-05-19T04:07:48;102904.38;;;8.49;73.55
48606;BME280;8482;54.396;18.590;2023-05-19T04:10:14;102908.53;;;8.56;73.85
48606;BME280;8482;54.396;18.590;2023-05-19T04:12:40;102911.72;;;8.66;73.77
48606;BME280;8482;54.396;18.590;2023-05-19T04:15:07;102915.91;;;8.72;73.20
48606;BME280;8482;54.396;18.590;2023-05-19T04:17:33;102908.63;;;8.79;73.16
48606;BME280;8482;54.396;18.590;2023-05-19T04:19:58;102908.41;;;8.85;73.07
48606;BME280;8482;54.396;18.590;2023-05-19T04:22:24;102893.38;;;8.85;73.19
48606;BME280;8482;54.396;18.590;2023-05-19T04:24:50;102907.88;;;8.99;72.94
48606;BME280;8482;54.396;18.590;2023-05-19T04:27:17;102906.78;;;9.04;72.80
48606;BME280;8482;54.396;18.590;2023-05-19T04:29:44;102897.75;;;9.10;72.81
48606;BME280;8482;54.396;18.590;2023-05-19T04:32:12;102905.38;;;9.18;72.87
48606;BME280;8482;54.396;18.590;2023-05-19T04:34:42;102905.22;;;9.23;72.39
48606;BME280;8482;54.396;18.590;2023-05-19T04:37:12;102900.59;;;9.28;72.54
48606;BME280;8482;54.396;18.590;2023-05-19T04:39:39;102905.72;;;9.32;72.20
48606;BME280;8482;54.396;18.590;2023-05-19T04:42:08;102902.84;;;9.39;71.73
48606;BME280;8482;54.396;18.590;2023-05-19T04:44:37;102901.66;;;9.46;71.27
48606;BME280;8482;54.396;18.590;2023-05-19T04:47:06;102901.44;;;9.52;71.46
48606;BME280;8482;54.396;18.590;2023-05-19T04:49:34;102896.75;;;9.59;71.12
48606;BME280;8482;54.396;18.590;2023-05-19T04:52:09;102901.78;;;9.65;71.05
48606;BME280;8482;54.396;18.590;2023-05-19T04:54:36;102907.69;;;9.72;70.95
48606;BME280;8482;54.396;18.590;2023-05-19T04:57:03;102897.03;;;9.73;70.89
48606;BME280;8482;54.396;18.590;2023-05-19T04:59:32;102912.50;;;9.84;70.79
48606;BME280;8482;54.396;18.590;2023-05-19T05:01:58;102907.06;;;9.87;70.22
48606;BME280;8482;54.396;18.590;2023-05-19T05:04:24;102907.59;;;9.95;70.61
48606;BME280;8482;54.396;18.590;2023-05-19T05:06:50;102912.66;;;10.02;70.58
48606;BME280;8482;54.396;18.590;2023-05-19T05:09:17;102911.53;;;10.07;70.41
48606;BME280;8482;54.396;18.590;2023-05-19T05:11:44;102915.72;;;10.13;70.75
48606;BME280;8482;54.396;18.590;2023-05-19T05:14:10;102918.09;;;10.19;70.74
48606;BME280;8482;54.396;18.590;2023-05-19T05:16:37;102924.81;;;10.28;70.96
48606;BME280;8482;54.396;18.590;2023-05-19T05:19:03;102918.44;;;10.32;70.78
48606;BME280;8482;54.396;18.590;2023-05-19T05:21:29;102909.47;;;10.35;70.77
48606;BME280;8482;54.396;18.590;2023-05-19T05:23:56;102922.31;;;10.46;70.69
48606;BME280;8482;54.396;18.590;2023-05-19T05:26:29;102918.41;;;10.54;71.04
48606;BME280;8482;54.396;18.590;2023-05-19T05:28:55;102922.59;;;10.60;70.79
48606;BME280;8482;54.396;18.590;2023-05-19T05:31:20;102907.50;;;10.61;70.33
48606;BME280;8482;54.396;18.590;2023-05-19T05:33:46;102915.84;;;10.72;70.08
48606;BME280;8482;54.396;18.590;2023-05-19T05:36:12;102917.41;;;10.78;70.08
48606;BME280;8482;54.396;18.590;2023-05-19T05:38:39;102911.06;;;10.80;70.06
48606;BME280;8482;54.396;18.590;2023-05-19T05:41:04;102915.09;;;10.89;69.83
48606;BME280;8482;54.396;18.590;2023-05-19T05:43:30;102915.75;;;10.94;69.76
48606;BME280;8482;54.396;18.590;2023-05-19T05:45:56;102919.91;;;11.00;69.32
48606;BME280;8482;54.396;18.590;2023-05-19T05:48:22;102916.97;;;11.06;69.65
48606;BME280;8482;54.396;18.590;2023-05-19T05:50:49;102914.19;;;11.09;69.25
48606;BME280;8482;54.396;18.590;2023-05-19T05:53:20;102913.84;;;11.17;69.13
48606;BME280;8482;54.396;18.590;2023-05-19T05:55:47;102919.84;;;11.21;68.94
48606;BME280;8482;54.396;18.590;2023-05-19T05:58:13;102923.00;;;11.29;69.27
48606;BME280;8482;54.396;18.590;2023-05-19T06:00:41;102916.63;;;11.33;69.19
48606;BME280;8482;54.396;18.590;2023-05-19T06:03:10;102915.31;;;11.42;69.16
48606;BME280;8482;54.396;18.590;2023-05-19T06:05:36;102918.59;;;11.47;69.13
48606;BME280;8482;54.396;18.590;2023-05-19T06:08:03;102927.22;;;11.52;68.88
48606;BME280;8482;54.396;18.590;2023-05-19T06:10:29;102919.13;;;11.55;69.02
48606;BME280;8482;54.396;18.590;2023-05-19T06:12:55;102922.38;;;11.60;69.04
48606;BME280;8482;54.396;18.590;2023-05-19T06:15:21;102930.13;;;11.65;68.88
48606;BME280;8482;54.396;18.590;2023-05-19T06:17:47;102926.41;;;11.69;68.90
48606;BME280;8482;54.396;18.590;2023-05-19T06:20:13;102926.13;;;11.75;69.14
48606;BME280;8482;54.396;18.590;2023-05-19T06:22:39;102931.19;;;11.80;68.85
48606;BME280;8482;54.396;18.590;2023-05-19T06:25:06;102932.78;;;11.84;69.09
48606;BME280;8482;54.396;18.590;2023-05-19T06:27:34;102928.16;;;11.88;69.04
48606;BME280;8482;54.396;18.590;2023-05-19T06:30:00;102929.81;;;11.90;68.71
48606;BME280;8482;54.396;18.590;2023-05-19T06:32:26;102928.63;;;11.96;68.83
48606;BME280;8482;54.396;18.590;2023-05-19T06:34:54;102928.44;;;12.01;68.99
48606;BME280;8482;54.396;18.590;2023-05-19T06:37:23;102929.91;;;12.06;68.56
48606;BME280;8482;54.396;18.590;2023-05-19T06:39:53;102928.91;;;12.09;68.42
48606;BME280;8482;54.396;18.590;2023-05-19T06:42:19;102922.56;;;12.11;68.67
48606;BME280;8482;54.396;18.590;2023-05-19T06:44:48;102927.81;;;12.13;68.21
48606;BME280;8482;54.396;18.590;2023-05-19T06:47:16;102937.47;;;12.16;68.55
48606;BME280;8482;54.396;18.590;2023-05-19T06:49:43;102930.22;;;12.18;67.99
48606;BME280;8482;54.396;18.590;2023-05-19T06:52:09;102934.63;;;12.19;67.83
48606;BME280;8482;54.396;18.590;2023-05-19T06:54:35;102929.16;;;12.22;67.84
48606;BME280;8482;54.396;18.590;2023-05-19T06:57:01;102935.09;;;12.27;68.11
48606;BME280;8482;54.396;18.590;2023-05-19T06:59:27;102933.22;;;12.29;67.93
48606;BME280;8482;54.396;18.590;2023-05-19T07:01:53;102932.19;;;12.32;68.33
48606;BME280;8482;54.396;18.590;2023-05-19T07:04:18;102932.75;;;12.38;67.58
48606;BME280;8482;54.396;18.590;2023-05-19T07:06:44;102929.06;;;12.41;67.22
48606;BME280;8482;54.396;18.590;2023-05-19T07:09:10;102927.97;;;12.45;67.19
48606;BME280;8482;54.396;18.590;2023-05-19T07:11:36;102920.81;;;12.46;66.83
48606;BME280;8482;54.396;18.590;2023-05-19T07:14:02;102925.94;;;12.50;66.63
48606;BME280;8482;54.396;18.590;2023-05-19T07:16:27;102923.19;;;12.52;66.34
48606;BME280;8482;54.396;18.590;2023-05-19T07:18:53;102926.53;;;12.55;66.39
48606;BME280;8482;54.396;18.590;2023-05-19T07:21:19;102934.28;;;12.60;66.35
48606;BME280;8482;54.396;18.590;2023-05-19T07:23:45;102930.59;;;12.63;66.14
48606;BME280;8482;54.396;18.590;2023-05-19T07:26:11;102921.59;;;12.65;65.90
48606;BME280;8482;54.396;18.590;2023-05-19T07:28:37;102924.00;;;12.70;65.57
48606;BME280;8482;54.396;18.590;2023-05-19T07:31:03;102922.91;;;12.74;65.76
48606;BME280;8482;54.396;18.590;2023-05-19T07:33:29;102929.06;;;12.75;65.99
48606;BME280;8482;54.396;18.590;2023-05-19T07:35:54;102925.31;;;12.79;66.07
48606;BME280;8482;54.396;18.590;2023-05-19T07:38:20;102926.94;;;12.81;65.23
48606;BME280;8482;54.396;18.590;2023-05-19T07:40:46;102926.00;;;12.82;65.07
48606;BME280;8482;54.396;18.590;2023-05-19T07:43:12;102925.91;;;12.84;64.58
48606;BME280;8482;54.396;18.590;2023-05-19T07:45:38;102924.97;;;12.85;64.37
48606;BME280;8482;54.396;18.590;2023-05-19T07:48:04;102923.97;;;12.87;64.53
48606;BME280;8482;54.396;18.590;2023-05-19T07:50:30;102921.13;;;12.91;64.44
48606;BME280;8482;54.396;18.590;2023-05-19T07:52:56;102920.69;;;12.98;64.51
48606;BME280;8482;54.396;18.590;2023-05-19T07:55:22;102922.25;;;13.02;63.98
48606;BME280;8482;54.396;18.590;2023-05-19T07:57:49;102922.94;;;13.06;64.13
48606;BME280;8482;54.396;18.590;2023-05-19T08:00:15;102926.31;;;13.10;63.46
48606;BME280;8482;54.396;18.590;2023-05-19T08:02:42;102930.63;;;13.12;63.44
48606;BME280;8482;54.396;18.590;2023-05-19T08:05:09;102931.31;;;13.16;63.36
48606;BME280;8482;54.396;18.590;2023-05-19T08:07:35;102927.59;;;13.18;62.67
48606;BME280;8482;54.396;18.590;2023-05-19T08:10:02;102929.16;;;13.23;62.67
48606;BME280;8482;54.396;18.590;2023-05-19T08:12:28;102929.16;;;13.23;62.51
48606;BME280;8482;54.396;18.590;2023-05-19T08:14:54;102931.66;;;13.26;62.12
48606;BME280;8482;54.396;18.590;2023-05-19T08:17:19;102933.19;;;13.30;62.38
48606;BME280;8482;54.396;18.590;2023-05-19T08:19:46;102933.97;;;13.32;62.55
48606;BME280;8482;54.396;18.590;2023-05-19T08:22:12;102933.81;;;13.35;62.67
48606;BME280;8482;54.396;18.590;2023-05-19T08:24:38;102930.91;;;13.40;62.30
48606;BME280;8482;54.396;18.590;2023-05-19T08:27:04;102921.91;;;13.42;62.32
48606;BME280;8482;54.396;18.590;2023-05-19T08:29:31;102920.75;;;13.46;62.53
48606;BME280;8482;54.396;18.590;2023-05-19T08:31:56;102920.59;;;13.49;62.16
48606;BME280;8482;54.396;18.590;2023-05-19T08:34:23;102919.53;;;13.52;62.11
48606;BME280;8482;54.396;18.590;2023-05-19T08:36:48;102931.09;;;13.53;61.94
48606;BME280;8482;54.396;18.590;2023-05-19T08:39:14;102923.88;;;13.55;62.31
48606;BME280;8482;54.396;18.590;2023-05-19T08:41:42;102922.72;;;13.59;62.68
48606;BME280;8482;54.396;18.590;2023-05-19T08:44:09;102917.31;;;13.60;62.47
48606;BME280;8482;54.396;18.590;2023-05-19T08:46:35;102919.78;;;13.63;62.50
48606;BME280;8482;54.396;18.590;2023-05-19T08:49:10;102913.50;;;13.64;63.40
48606;BME280;8482;54.396;18.590;2023-05-19T08:54:29;102924.78;;;13.70;63.48
48606;BME280;8482;54.396;18.590;2023-05-19T08:56:55;102915.72;;;13.72;64.28
48606;BME280;8482;54.396;18.590;2023-05-19T08:59:22;102919.94;;;13.76;64.14
48606;BME280;8482;54.396;18.590;2023-05-19T09:01:49;102917.28;;;13.76;63.79
48606;BME280;8482;54.396;18.590;2023-05-19T09:04:16;102926.22;;;13.75;62.86
48606;BME280;8482;54.396;18.590;2023-05-19T09:06:42;102927.09;;;13.76;63.00
48606;BME280;8482;54.396;18.590;2023-05-19T09:09:10;102928.72;;;13.78;63.56
48606;BME280;8482;54.396;18.590;2023-05-19T09:11:36;102927.59;;;13.83;64.20
48606;BME280;8482;54.396;18.590;2023-05-19T09:14:03;102928.28;;;13.86;64.43
48606;BME280;8482;54.396;18.590;2023-05-19T09:16:29;102930.00;;;13.87;63.89
48606;BME280;8482;54.396;18.590;2023-05-19T09:18:57;102931.72;;;13.88;63.93
48606;BME280;8482;54.396;18.590;2023-05-19T09:21:28;102922.78;;;13.89;63.51
48606;BME280;8482;54.396;18.590;2023-05-19T09:24:05;102924.41;;;13.92;63.49
48606;BME280;8482;54.396;18.590;2023-05-19T09:26:41;102919.72;;;13.95;62.96
48606;BME280;8482;54.396;18.590;2023-05-19T09:29:17;102918.78;;;13.97;62.36
48606;BME280;8482;54.396;18.590;2023-05-19T09:31:51;102912.69;;;13.94;62.41
48606;BME280;8482;54.396;18.590;2023-05-19T09:34:18;102912.50;;;13.98;62.40
48606;BME280;8482;54.396;18.590;2023-05-19T09:36:46;102915.84;;;14.01;62.56
48606;BME280;8482;54.396;18.590;2023-05-19T09:39:19;102913.78;;;14.06;62.31
48606;BME280;8482;54.396;18.590;2023-05-19T09:41:45;102916.44;;;14.06;61.50
48606;BME280;8482;54.396;18.590;2023-05-19T09:44:25;102903.09;;;14.06;61.55
48606;BME280;8482;54.396;18.590;2023-05-19T09:46:55;102909.44;;;14.04;61.32
48606;BME280;8482;54.396;18.590;2023-05-19T09:49:30;102908.59;;;14.03;60.97
48606;BME280;8482;54.396;18.590;2023-05-19T09:52:01;102908.78;;;14.00;60.85
48606;BME280;8482;54.396;18.590;2023-05-19T09:54:29;102903.63;;;13.97;61.08
48606;BME280;8482;54.396;18.590;2023-05-19T09:57:01;102910.78;;;13.97;60.53
48606;BME280;8482;54.396;18.590;2023-05-19T09:59:29;102905.53;;;13.95;60.68
48606;BME280;8482;54.396;18.590;2023-05-19T10:01:58;102907.34;;;13.94;60.26
48606;BME280;8482;54.396;18.590;2023-05-19T10:04:26;102910.09;;;13.93;59.57
48606;BME280;8482;54.396;18.590;2023-05-19T10:06:54;102915.50;;;13.91;59.65
48606;BME280;8482;54.396;18.590;2023-05-19T10:09:30;102914.66;;;13.91;58.82
48606;BME280;8482;54.396;18.590;2023-05-19T10:11:58;102919.22;;;13.89;59.25
48606;BME280;8482;54.396;18.590;2023-05-19T10:14:28;102915.72;;;13.88;58.75
48606;BME280;8482;54.396;18.590;2023-05-19T10:16:57;102913.13;;;13.87;58.34
48606;BME280;8482;54.396;18.590;2023-05-19T10:19:26;102907.78;;;13.87;57.92
48606;BME280;8482;54.396;18.590;2023-05-19T10:21:52;102907.88;;;13.85;57.60
48606;BME280;8482;54.396;18.590;2023-05-19T10:24:19;102901.50;;;13.88;57.65
48606;BME280;8482;54.396;18.590;2023-05-19T10:26:55;102905.91;;;13.89;57.42
48606;BME280;8482;54.396;18.590;2023-05-19T10:29:28;102901.59;;;13.86;57.45
48606;BME280;8482;54.396;18.590;2023-05-19T10:32:02;102892.66;;;13.87;57.59
48606;BME280;8482;54.396;18.590;2023-05-19T10:41:39;102901.00;;;13.81;56.70
48606;BME280;8482;54.396;18.590;2023-05-19T10:44:26;102897.66;;;13.77;56.84
48606;BME280;8482;54.396;18.590;2023-05-19T10:46:55;102892.31;;;13.77;56.42
48606;BME280;8482;54.396;18.590;2023-05-19T10:49:22;102897.75;;;13.76;55.96
48606;BME280;8482;54.396;18.590;2023-05-19T10:51:48;102899.72;;;13.72;55.45
48606;BME280;8482;54.396;18.590;2023-05-19T10:54:16;102898.09;;;13.70;55.41
48606;BME280;8482;54.396;18.590;2023-05-19T10:56:43;102911.44;;;13.70;55.44
48606;BME280;8482;54.396;18.590;2023-05-19T10:59:34;102899.16;;;13.67;55.28
48606;BME280;8482;54.396;18.590;2023-05-19T11:02:03;102896.66;;;13.64;54.85
48606;BME280;8482;54.396;18.590;2023-05-19T11:07:19;102901.38;;;13.59;54.73
48606;BME280;8482;54.396;18.590;2023-05-19T11:09:52;102901.50;;;13.57;54.19
48606;BME280;8482;54.396;18.590;2023-05-19T11:12:22;102897.94;;;13.57;54.25
48606;BME280;8482;54.396;18.590;2023-05-19T11:14:53;102893.66;;;13.54;54.46
48606;BME280;8482;54.396;18.590;2023-05-19T11:17:19;102894.53;;;13.55;54.20
48606;BME280;8482;54.396;18.590;2023-05-19T11:19:53;102898.81;;;13.57;54.42
48606;BME280;8482;54.396;18.590;2023-05-19T11:22:23;102897.88;;;13.58;54.39
48606;BME280;8482;54.396;18.590;2023-05-19T11:24:56;102901.50;;;13.57;54.30
48606;BME280;8482;54.396;18.590;2023-05-19T11:27:30;102904.16;;;13.57;54.68
48606;BME280;8482;54.396;18.590;2023-05-19T11:29:59;102897.88;;;13.58;54.47
48606;BME280;8482;54.396;18.590;2023-05-19T11:32:28;102895.88;;;13.62;54.05
48606;BME280;8482;54.396;18.590;2023-05-19T11:34:56;102895.03;;;13.61;54.03
48606;BME280;8482;54.396;18.590;2023-05-19T11:37:22;102901.22;;;13.62;54.34
48606;BME280;8482;54.396;18.590;2023-05-19T11:39:48;102895.78;;;13.63;53.84
48606;BME280;8482;54.396;18.590;2023-05-19T11:42:15;102897.50;;;13.64;53.60
48606;BME280;8482;54.396;18.590;2023-05-19T11:44:45;102908.00;;;13.68;53.67
48606;BME280;8482;54.396;18.590;2023-05-19T11:47:15;102906.09;;;13.70;53.80
48606;BME280;8482;54.396;18.590;2023-05-19T11:49:50;102914.09;;;13.70;53.95
48606;BME280;8482;54.396;18.590;2023-05-19T11:52:24;102917.63;;;13.70;54.26
48606;BME280;8482;54.396;18.590;2023-05-19T11:54:50;102921.94;;;13.73;55.13
48606;BME280;8482;54.396;18.590;2023-05-19T11:57:16;102919.09;;;13.76;55.78
48606;BME280;8482;54.396;18.590;2023-05-19T11:59:42;102923.47;;;13.77;56.34
48606;BME280;8482;54.396;18.590;2023-05-19T12:02:19;102926.91;;;13.79;55.80
48606;BME280;8482;54.396;18.590;2023-05-19T12:04:49;102920.72;;;13.78;55.90
48606;BME280;8482;54.396;18.590;2023-05-19T12:07:17;102932.16;;;13.81;56.48
48606;BME280;8482;54.396;18.590;2023-05-19T12:09:45;102929.31;;;13.84;57.01
48606;BME280;8482;54.396;18.590;2023-05-19T12:12:22;102931.63;;;13.90;57.49
48606;BME280;8482;54.396;18.590;2023-05-19T12:14:51;102933.25;;;13.92;57.49
48606;BME280;8482;54.396;18.590;2023-05-19T12:17:20;102938.25;;;13.99;57.03
48606;BME280;8482;54.396;18.590;2023-05-19T12:19:47;102938.91;;;14.02;57.29
48606;BME280;8482;54.396;18.590;2023-05-19T12:22:17;102944.06;;;14.05;57.37
48606;BME280;8482;54.396;18.590;2023-05-19T12:24:45;102944.63;;;14.10;57.02
48606;BME280;8482;54.396;18.590;2023-05-19T12:27:18;102953.41;;;14.13;57.16
48606;BME280;8482;54.396;18.590;2023-05-19T12:29:55;102953.53;;;14.11;57.00
48606;BME280;8482;54.396;18.590;2023-05-19T12:32:26;102953.53;;;14.11;56.54
48606;BME280;8482;54.396;18.590;2023-05-19T12:34:55;102950.75;;;14.13;56.65
48606;BME280;8482;54.396;18.590;2023-05-19T12:37:25;102958.69;;;14.14;56.43
48606;BME280;8482;54.396;18.590;2023-05-19T12:39:52;102951.53;;;14.15;57.10
48606;BME280;8482;54.396;18.590;2023-05-19T12:42:18;102954.88;;;14.18;56.94
48606;BME280;8482;54.396;18.590;2023-05-19T12:44:48;102945.84;;;14.21;56.60
48606;BME280;8482;54.396;18.590;2023-05-19T12:47:18;102947.47;;;14.23;56.73
48606;BME280;8482;54.396;18.590;2023-05-19T12:50:07;102949.25;;;14.23;56.30
48606;BME280;8482;54.396;18.590;2023-05-19T12:52:48;102940.50;;;14.21;56.62
48606;BME280;8482;54.396;18.590;2023-05-19T12:55:18;102937.34;;;14.14;56.98
48606;BME280;8482;54.396;18.590;2023-05-19T12:57:50;102944.19;;;14.18;58.76
48606;BME280;8482;54.396;18.590;2023-05-19T13:00:20;102937.13;;;14.17;58.77
48606;BME280;8482;54.396;18.590;2023-05-19T13:03:03;102939.78;;;14.17;59.04
48606;BME280;8482;54.396;18.590;2023-05-19T13:05:37;102937.22;;;14.16;59.37
48606;BME280;8482;54.396;18.590;2023-05-19T13:08:12;102940.75;;;14.16;60.28
48606;BME280;8482;54.396;18.590;2023-05-19T13:10:42;102925.00;;;14.12;60.53
48606;BME280;8482;54.396;18.590;2023-05-19T13:13:09;102936.47;;;14.14;60.41
48606;BME280;8482;54.396;18.590;2023-05-19T13:15:45;102937.41;;;14.13;60.93
48606;BME280;8482;54.396;18.590;2023-05-19T13:18:13;102930.56;;;14.08;60.64
48606;BME280;8482;54.396;18.590;2023-05-19T13:20:42;102928.06;;;14.05;60.82
48606;BME280;8482;54.396;18.590;2023-05-19T13:23:10;102919.47;;;14.00;60.41
48606;BME280;8482;54.396;18.590;2023-05-19T13:25:37;102921.44;;;13.97;60.42
48606;BME280;8482;54.396;18.590;2023-05-19T13:28:04;102917.16;;;13.94;60.71